createdAt,value
2022-12-09T00:01:14.851Z,80.81
2022-12-09T00:06:26.798Z,80.85
2022-12-09T00:11:36.606Z,80.97
2022-12-09T00:16:46.045Z,80.97
2022-12-09T00:22:06.119Z,81.02
2022-12-09T00:27:18.212Z,81.00
2022-12-09T00:32:30.758Z,81.15
2022-12-09T00:37:40.865Z,81.25
2022-12-09T00:42:51.615Z,81.22
2022-12-09T00:48:04.322Z,81.29
2022-12-09T00:53:19.489Z,81.30
2022-12-09T00:58:33.473Z,81.27
2022-12-09T01:03:41.762Z,81.40
2022-12-09T01:08:51.391Z,81.64
2022-12-09T01:14:03.638Z,81.74
2022-12-09T01:19:14.700Z,81.75
2022-12-09T01:24:23.535Z,81.86
2022-12-09T01:29:32.252Z,81.93
2022-12-09T01:35:20.779Z,81.94
2022-12-09T01:41:15.494Z,81.98
2022-12-09T01:46:32.612Z,81.86
2022-12-09T01:51:42.417Z,82.04
2022-12-09T01:56:54.836Z,81.99
2022-12-09T02:02:11.597Z,82.07
2022-12-09T02:07:23.207Z,82.14
2022-12-09T02:12:44.069Z,82.17
2022-12-09T02:17:59.600Z,82.24
2022-12-09T02:23:12.965Z,82.26
2022-12-09T02:28:46.574Z,82.36
2022-12-09T02:34:10.468Z,82.36
2022-12-09T02:39:28.278Z,82.45
2022-12-09T02:44:41.796Z,82.53
2022-12-09T02:49:52.962Z,82.65
2022-12-09T02:55:04.183Z,82.55
2022-12-09T03:00:19.066Z,82.77
2022-12-09T03:05:52.838Z,82.84
2022-12-09T03:11:11.499Z,82.82
2022-12-09T03:16:29.607Z,82.81
2022-12-09T03:21:47.321Z,83.00
2022-12-09T03:26:58.566Z,83.13
2022-12-09T03:32:07.547Z,83.09
2022-12-09T03:37:27.587Z,83.20
2022-12-09T03:42:45.491Z,83.33
2022-12-09T03:47:54.089Z,83.43
2022-12-09T03:53:06.305Z,83.34
2022-12-09T03:58:16.837Z,83.40
2022-12-09T04:03:24.458Z,83.49
2022-12-09T04:08:32.000Z,83.61
2022-12-09T04:13:39.412Z,83.62
2022-12-09T04:18:46.672Z,83.73
2022-12-09T04:23:53.858Z,83.74
2022-12-09T04:29:00.773Z,83.82
2022-12-09T04:34:09.911Z,83.90
2022-12-09T04:39:17.146Z,83.88
2022-12-09T04:44:24.505Z,83.89
2022-12-09T04:49:32.311Z,83.88
2022-12-09T04:54:39.351Z,84.04
2022-12-09T04:59:46.507Z,84.01
2022-12-09T05:04:53.968Z,84.04
2022-12-09T05:10:01.496Z,84.14
2022-12-09T05:15:10.386Z,84.21
2022-12-09T05:20:17.695Z,84.35
2022-12-09T05:25:25.022Z,84.39
2022-12-09T05:30:32.420Z,84.46
2022-12-09T05:35:50.528Z,84.57
2022-12-09T05:41:19.711Z,84.79
2022-12-09T05:46:27.424Z,84.90
2022-12-09T05:51:35.115Z,85.09
2022-12-09T05:56:47.899Z,85.21
2022-12-09T06:01:55.824Z,85.27
2022-12-09T06:07:03.056Z,85.38
2022-12-09T06:12:12.404Z,85.34
2022-12-09T06:17:20.047Z,85.34
2022-12-09T06:22:27.023Z,85.35
2022-12-09T06:27:33.957Z,85.33
2022-12-09T06:32:41.044Z,85.36
2022-12-09T06:37:49.280Z,85.36
2022-12-09T06:42:56.536Z,85.42
2022-12-09T06:48:04.022Z,85.37
2022-12-09T06:53:11.397Z,85.44
2022-12-09T06:58:18.666Z,85.42
2022-12-09T07:03:26.265Z,85.49
2022-12-09T07:08:33.514Z,85.44
2022-12-09T07:13:40.604Z,85.46
2022-12-09T07:18:47.776Z,85.47
2022-12-09T07:23:55.380Z,85.53
2022-12-09T07:29:04.665Z,85.46
2022-12-09T07:34:13.592Z,85.47
2022-12-09T07:39:21.762Z,85.51
2022-12-09T07:44:29.610Z,85.59
2022-12-09T07:49:37.392Z,85.62
2022-12-09T07:54:44.970Z,85.64
2022-12-09T07:59:53.486Z,85.54
2022-12-09T08:05:02.287Z,85.62
2022-12-09T08:10:11.525Z,85.61
2022-12-09T08:15:20.291Z,85.60
2022-12-09T08:20:29.584Z,85.63
2022-12-09T08:25:37.453Z,85.64
2022-12-09T08:30:44.697Z,85.53
2022-12-09T08:35:52.389Z,85.54
2022-12-09T08:41:00.022Z,85.73
2022-12-09T08:46:08.136Z,85.62
2022-12-09T08:51:15.822Z,85.65
2022-12-09T08:56:23.104Z,85.67
2022-12-09T09:01:34.860Z,85.54
2022-12-09T09:06:45.275Z,85.42
2022-12-09T09:11:52.679Z,85.48
2022-12-09T09:17:00.129Z,85.28
2022-12-09T09:22:07.436Z,85.19
2022-12-09T09:27:14.760Z,85.18
2022-12-09T09:32:22.154Z,85.08
2022-12-09T09:37:29.190Z,84.98
2022-12-09T09:42:45.909Z,84.85
2022-12-09T09:47:55.946Z,84.80
2022-12-09T09:53:14.880Z,84.73
2022-12-09T09:58:27.312Z,84.61
2022-12-09T10:03:53.574Z,84.47
2022-12-09T10:09:05.699Z,84.32
2022-12-09T10:14:21.164Z,84.21
2022-12-09T10:19:32.997Z,84.09
2022-12-09T10:24:44.589Z,84.11
2022-12-09T10:29:59.181Z,84.07
2022-12-09T10:35:16.542Z,83.88
2022-12-09T10:40:30.978Z,84.01
2022-12-09T10:46:16.802Z,84.20
2022-12-09T10:51:17.834Z,83.95
2022-12-09T10:56:27.377Z,83.80
2022-12-09T11:01:51.721Z,83.77
2022-12-09T11:07:02.179Z,83.56
2022-12-09T11:12:19.259Z,83.38
2022-12-09T11:17:29.349Z,83.18
2022-12-09T11:22:41.435Z,83.09
2022-12-09T11:28:01.974Z,82.85
2022-12-09T11:33:25.248Z,82.81
2022-12-09T11:39:05.536Z,82.53
2022-12-09T11:44:29.225Z,82.47
2022-12-09T11:49:48.357Z,82.30
2022-12-09T11:55:19.672Z,82.28
2022-12-09T12:00:34.221Z,82.16
2022-12-09T12:05:46.760Z,82.29
2022-12-09T12:10:58.590Z,81.84
2022-12-09T12:16:13.069Z,81.62
2022-12-09T12:21:36.849Z,81.55
2022-12-09T12:26:57.437Z,81.25
2022-12-09T12:32:17.601Z,81.05
2022-12-09T12:37:41.598Z,80.89
2022-12-09T12:43:23.440Z,80.88
2022-12-09T12:48:40.793Z,80.53
2022-12-09T12:54:03.511Z,80.13
2022-12-09T12:59:25.506Z,79.74
2022-12-09T13:04:48.658Z,79.73
2022-12-09T13:10:23.745Z,79.74
2022-12-09T13:15:38.858Z,79.72
2022-12-09T13:20:51.713Z,79.61
2022-12-09T13:26:14.245Z,79.84
2022-12-09T13:31:32.287Z,79.69
2022-12-09T13:36:53.067Z,79.75
2022-12-09T13:42:19.456Z,79.85
2022-12-09T13:47:35.526Z,79.67
2022-12-09T13:52:54.502Z,79.83
2022-12-09T13:58:24.608Z,79.97
2022-12-09T14:03:45.114Z,80.02
2022-12-09T14:09:02.572Z,79.99
2022-12-09T14:14:53.928Z,80.04
2022-12-09T14:20:17.484Z,80.20
2022-12-09T14:25:59.790Z,80.29
2022-12-09T14:31:09.487Z,80.41
2022-12-09T14:36:33.403Z,80.42
2022-12-09T14:41:50.802Z,80.49
2022-12-09T14:47:30.164Z,80.76
2022-12-09T14:52:38.748Z,80.82
2022-12-09T14:57:55.105Z,80.85
2022-12-09T15:08:37.462Z,81.19
2022-12-09T15:13:48.827Z,81.28
2022-12-09T15:18:57.566Z,81.42
2022-12-09T15:24:17.119Z,81.53
2022-12-09T15:29:32.107Z,81.51
2022-12-09T15:34:44.240Z,81.84
2022-12-09T15:39:59.044Z,81.95
2022-12-09T15:45:15.440Z,82.08
2022-12-09T15:50:28.867Z,82.25
2022-12-09T15:55:46.276Z,82.36
2022-12-09T16:01:23.853Z,82.33
2022-12-09T16:06:36.643Z,82.47
2022-12-09T16:11:50.335Z,82.52
2022-12-09T16:17:02.340Z,82.49
2022-12-09T16:22:18.084Z,82.49
2022-12-09T16:27:33.997Z,82.56
2022-12-09T16:33:17.552Z,82.55
2022-12-09T16:38:47.546Z,82.61
2022-12-09T16:44:02.883Z,82.76
2022-12-09T16:49:12.312Z,82.79
2022-12-09T16:54:39.728Z,82.90
2022-12-09T16:59:55.681Z,82.87
2022-12-09T17:05:25.079Z,82.99
2022-12-09T17:10:37.535Z,83.01
2022-12-09T17:15:51.702Z,83.11
2022-12-09T17:21:16.830Z,83.17
2022-12-09T17:26:26.010Z,83.11
2022-12-09T17:31:36.900Z,83.19
2022-12-09T17:36:48.663Z,83.23
2022-12-09T17:41:58.253Z,83.29
2022-12-09T17:47:11.485Z,83.34
2022-12-09T17:52:20.750Z,83.30
2022-12-09T17:57:42.954Z,83.43
2022-12-09T18:03:04.196Z,83.44
2022-12-09T18:08:37.180Z,83.44
2022-12-09T18:13:49.068Z,83.48
2022-12-09T18:19:04.625Z,83.52
2022-12-09T18:24:15.789Z,83.63
2022-12-09T18:29:31.279Z,83.71
2022-12-09T18:34:44.263Z,83.85
2022-12-09T18:39:53.509Z,83.82
2022-12-09T18:45:06.324Z,84.04
2022-12-09T18:50:17.939Z,84.19
2022-12-09T18:55:25.677Z,84.51
2022-12-09T19:00:32.971Z,84.45
2022-12-09T19:05:43.774Z,84.45
2022-12-09T19:11:11.053Z,84.47
2022-12-09T19:16:20.138Z,84.44
2022-12-09T19:21:28.643Z,84.36
2022-12-09T19:26:37.935Z,84.42
2022-12-09T19:31:47.017Z,84.53
2022-12-09T19:36:58.029Z,84.68
2022-12-09T19:42:06.362Z,84.63
2022-12-09T19:47:13.558Z,84.79
2022-12-09T19:52:21.108Z,84.82
2022-12-09T19:57:47.554Z,84.87
2022-12-09T20:03:02.109Z,84.91
2022-12-09T20:08:10.802Z,85.02
2022-12-09T20:13:19.252Z,85.16
2022-12-09T20:18:27.012Z,85.13
2022-12-09T20:23:35.119Z,85.15
2022-12-09T20:28:44.562Z,85.14
2022-12-09T20:33:58.528Z,85.21
2022-12-09T20:39:12.436Z,85.37
2022-12-09T20:44:21.211Z,85.56
2022-12-09T20:49:44.244Z,85.55
2022-12-09T20:55:03.019Z,85.53
2022-12-09T21:00:19.317Z,85.64
2022-12-09T21:05:29.776Z,85.64
2022-12-09T21:10:37.528Z,85.64
2022-12-09T21:15:45.874Z,85.75
2022-12-09T21:20:56.398Z,85.72
2022-12-09T21:26:08.302Z,85.72
2022-12-09T21:31:19.818Z,85.74
2022-12-09T21:36:29.443Z,85.83
2022-12-09T21:41:38.463Z,85.94
2022-12-09T21:46:46.212Z,85.88
2022-12-09T21:51:56.514Z,85.99
2022-12-09T21:57:03.695Z,86.00
2022-12-09T22:02:12.732Z,85.98
2022-12-09T22:07:22.561Z,85.92
2022-12-09T22:12:33.287Z,86.01
2022-12-09T22:17:41.844Z,85.89
2022-12-09T22:22:49.109Z,85.88
2022-12-09T22:28:02.250Z,85.99
2022-12-09T22:33:10.000Z,85.99
2022-12-09T22:38:17.667Z,85.89
2022-12-09T22:43:36.466Z,85.97
2022-12-09T22:48:46.218Z,85.98
2022-12-09T22:53:56.104Z,86.22
2022-12-09T22:59:03.855Z,86.16
2022-12-09T23:04:14.436Z,86.21
2022-12-09T23:09:27.346Z,86.23
2022-12-09T23:14:38.037Z,86.26
2022-12-09T23:19:48.262Z,86.43
2022-12-09T23:25:02.810Z,86.11
2022-12-09T23:30:12.060Z,86.01
2022-12-09T23:35:22.003Z,86.07
2022-12-09T23:40:32.453Z,86.22
2022-12-09T23:45:39.680Z,86.08
2022-12-09T23:50:46.861Z,86.30
2022-12-09T23:55:53.965Z,86.20
